Time;durP1;ratioP1;P1;durP2;ratioP2;P2;SDS_P1;SDS_P2;PMS_P1;PMS_P2;Temp;Humidity;BMP_temperature;BMP_pressure;BME280_temperature;BME280_humidity;BME280_pressure;Samples;Min_cycle;Max_cycle;Signal;HPM_P1;HPM_P2
2023/08/04 00:01:06;;;;;;;5.72;1.88;;;16.40;80.50;;;;;;5110443;27;20564;-77
2023/08/04 00:03:33;;;;;;;6.57;1.93;;;16.40;80.70;;;;;;5115797;27;21117;-77
2023/08/04 00:06:01;;;;;;;8.05;1.90;;;16.40;80.80;;;;;;5111639;27;20262;-77
2023/08/04 00:08:28;;;;;;;6.75;1.70;;;16.40;80.90;;;;;;5110240;28;20150;-77
2023/08/04 00:10:55;;;;;;;5.38;1.92;;;16.40;80.90;;;;;;5109976;27;20051;-77
2023/08/04 00:13:22;;;;;;;6.57;1.73;;;16.40;80.90;;;;;;5111075;27;20056;-77
2023/08/04 00:15:49;;;;;;;8.53;2.00;;;16.40;81.00;;;;;;5118314;27;20046;-77
2023/08/04 00:18:15;;;;;;;8.07;1.92;;;16.40;81.20;;;;;;5116056;27;20975;-77
2023/08/04 00:20:42;;;;;;;7.25;1.85;;;16.40;81.10;;;;;;5112258;27;20301;-77
2023/08/04 00:23:11;;;;;;;4.18;1.60;;;16.40;81.20;;;;;;5109846;27;20896;-77
2023/08/04 00:25:38;;;;;;;4.85;1.50;;;16.40;81.40;;;;;;5110568;28;20056;-77
2023/08/04 00:28:05;;;;;;;6.87;1.87;;;16.40;81.50;;;;;;5109513;27;20056;-77
2023/08/04 00:30:31;;;;;;;7.28;1.83;;;16.30;81.60;;;;;;5092657;28;20740;-77
2023/08/04 00:32:58;;;;;;;6.28;2.00;;;16.30;81.50;;;;;;5092779;28;20059;-77
2023/08/04 00:35:25;;;;;;;6.15;1.85;;;16.30;81.70;;;;;;5118139;27;20063;-77
2023/08/04 00:37:52;;;;;;;8.45;1.92;;;16.30;81.70;;;;;;5118095;27;20067;-77
2023/08/04 00:40:20;;;;;;;5.90;1.70;;;16.20;82.00;;;;;;5110935;27;20052;-77
2023/08/04 00:42:47;;;;;;;6.60;1.60;;;16.20;82.00;;;;;;5092763;28;20295;-77
2023/08/04 00:45:14;;;;;;;5.72;1.90;;;16.20;81.90;;;;;;5099045;27;20058;-77
2023/08/04 00:47:42;;;;;;;6.35;1.98;;;16.30;82.00;;;;;;5104112;27;20062;-77
2023/08/04 00:50:10;;;;;;;6.85;2.13;;;16.20;82.00;;;;;;5109685;27;20056;-77
2023/08/04 00:52:39;;;;;;;5.80;1.70;;;16.20;82.00;;;;;;5094601;28;20082;-77
2023/08/04 00:55:09;;;;;;;6.43;1.90;;;16.20;81.90;;;;;;5109743;27;21001;-77
2023/08/04 00:57:38;;;;;;;7.05;2.05;;;16.20;82.00;;;;;;5113787;27;20154;-77
2023/08/04 01:00:07;;;;;;;5.88;2.00;;;16.20;82.00;;;;;;5110530;27;20113;-77
2023/08/04 01:02:34;;;;;;;4.63;2.00;;;16.20;82.00;;;;;;5102827;28;20052;-77
2023/08/04 01:05:02;;;;;;;7.17;1.93;;;16.20;82.10;;;;;;5110295;28;20060;-77
2023/08/04 01:07:34;;;;;;;5.15;1.92;;;16.20;82.00;;;;;;5092138;28;20312;-77
2023/08/04 01:10:12;;;;;;;6.40;1.83;;;16.20;82.00;;;;;;5109442;28;20250;-77
2023/08/04 01:12:48;;;;;;;7.47;1.95;;;16.20;82.00;;;;;;5091889;28;20071;-77
2023/08/04 01:15:16;;;;;;;6.93;2.03;;;16.10;82.10;;;;;;5096965;27;20071;-77
2023/08/04 01:17:43;;;;;;;5.80;1.70;;;16.10;82.10;;;;;;5115703;27;20048;-77
2023/08/04 01:20:11;;;;;;;6.13;1.77;;;16.10;82.30;;;;;;5107206;27;20270;-77
2023/08/04 01:22:39;;;;;;;7.07;2.13;;;16.10;82.20;;;;;;5113334;27;20539;-77
2023/08/04 01:25:08;;;;;;;6.57;1.75;;;16.10;82.30;;;;;;5108858;28;20510;-77
2023/08/04 01:27:39;;;;;;;5.80;1.98;;;16.10;82.30;;;;;;5089368;27;20143;-77
2023/08/04 01:30:12;;;;;;;7.90;2.03;;;16.10;82.40;;;;;;5109687;27;20442;-77
2023/08/04 01:32:39;;;;;;;8.73;1.67;;;16.10;82.40;;;;;;5091455;28;20290;-77
2023/08/04 01:35:08;;;;;;;6.13;1.88;;;16.10;82.50;;;;;;5111790;27;20047;-77
2023/08/04 01:37:35;;;;;;;5.13;1.33;;;16.10;82.80;;;;;;5153165;27;20127;-76
2023/08/04 01:40:04;;;;;;;5.85;1.63;;;16.10;82.80;;;;;;5109539;27;20575;-77
2023/08/04 01:42:31;;;;;;;3.53;1.23;;;16.10;82.80;;;;;;5102612;28;20149;-77
2023/08/04 01:44:59;;;;;;;7.03;1.55;;;16.00;83.00;;;;;;5109208;27;20355;-77
2023/08/04 01:47:25;;;;;;;5.22;1.30;;;16.00;82.90;;;;;;5096190;27;20524;-77
2023/08/04 01:49:52;;;;;;;4.03;1.20;;;16.00;82.70;;;;;;5100915;28;20453;-77
2023/08/04 01:52:19;;;;;;;4.93;1.50;;;16.00;82.70;;;;;;5109807;27;20044;-77
2023/08/04 01:54:46;;;;;;;6.07;1.60;;;16.00;82.70;;;;;;5090901;28;20051;-77
2023/08/04 01:57:14;;;;;;;4.68;1.50;;;16.00;82.70;;;;;;5115536;27;20407;-77
2023/08/04 01:59:41;;;;;;;7.00;1.60;;;16.00;82.80;;;;;;5094956;27;20048;-77
2023/08/04 02:02:08;;;;;;;6.03;1.50;;;16.00;82.80;;;;;;5097045;27;20075;-77
2023/08/04 02:04:35;;;;;;;4.90;1.60;;;16.00;82.80;;;;;;5096952;28;20129;-77
2023/08/04 02:07:02;;;;;;;7.00;1.80;;;16.00;82.90;;;;;;5125421;27;20421;-77
2023/08/04 02:09:29;;;;;;;5.13;1.90;;;16.00;83.00;;;;;;5085177;28;20351;-77
2023/08/04 02:11:57;;;;;;;7.20;1.75;;;16.00;82.90;;;;;;5099893;27;20052;-77
2023/08/04 02:14:27;;;;;;;5.18;2.08;;;16.00;82.90;;;;;;5090001;27;20076;-77
2023/08/04 02:16:55;;;;;;;5.28;1.60;;;16.00;83.00;;;;;;5113688;27;20049;-77
2023/08/04 02:19:22;;;;;;;5.90;1.67;;;16.00;83.10;;;;;;5098021;28;20075;-77
2023/08/04 02:21:51;;;;;;;6.53;1.67;;;16.00;83.10;;;;;;5115183;27;20274;-77
2023/08/04 02:24:18;;;;;;;7.60;1.88;;;16.00;83.30;;;;;;5097272;28;20371;-77
2023/08/04 02:26:45;;;;;;;8.50;2.00;;;16.00;83.30;;;;;;5083244;27;20051;-77
2023/08/04 02:29:13;;;;;;;10.82;2.05;;;16.00;83.40;;;;;;5114497;27;20079;-77
2023/08/04 02:31:42;;;;;;;5.73;1.50;;;16.00;83.60;;;;;;5100429;27;20121;-77
2023/08/04 02:34:09;;;;;;;6.60;1.58;;;16.00;83.70;;;;;;5108369;27;20335;-77
2023/08/04 02:36:36;;;;;;;8.77;1.60;;;15.90;83.70;;;;;;5108450;27;20426;-77
2023/08/04 02:39:03;;;;;;;5.43;1.52;;;16.00;84.10;;;;;;5096617;27;20054;-77
2023/08/04 02:41:30;;;;;;;6.93;1.85;;;15.90;84.00;;;;;;5109148;27;20145;-77
2023/08/04 02:43:57;;;;;;;6.47;1.60;;;15.80;84.20;;;;;;5114888;27;20055;-77
2023/08/04 02:46:25;;;;;;;4.75;1.40;;;15.80;84.30;;;;;;5116788;27;20258;-77
2023/08/04 02:48:53;;;;;;;6.13;1.45;;;15.80;84.70;;;;;;5110473;27;20070;-77
2023/08/04 02:51:20;;;;;;;5.75;1.40;;;15.80;84.60;;;;;;5111566;27;20139;-77
2023/08/04 02:53:49;;;;;;;6.40;1.48;;;15.80;84.70;;;;;;5076788;28;20537;-77
2023/08/04 02:56:17;;;;;;;5.43;1.40;;;15.80;84.70;;;;;;5112541;27;20059;-77
2023/08/04 02:58:45;;;;;;;3.92;1.10;;;15.80;84.70;;;;;;5113204;27;20273;-77
2023/08/04 03:01:13;;;;;;;6.15;1.42;;;15.70;85.00;;;;;;5092390;27;20514;-77
2023/08/04 03:03:40;;;;;;;4.82;1.20;;;15.70;84.90;;;;;;5106501;27;20049;-77
2023/08/04 03:06:09;;;;;;;4.05;1.10;;;15.70;84.90;;;;;;5112172;27;20132;-77
2023/08/04 03:08:36;;;;;;;4.93;1.33;;;15.70;84.70;;;;;;5106936;28;20048;-77
2023/08/04 03:11:08;;;;;;;5.03;1.30;;;15.70;84.80;;;;;;5110037;28;20281;-77
2023/08/04 03:13:35;;;;;;;4.18;1.20;;;15.60;84.80;;;;;;5111220;27;20494;-77
2023/08/04 03:16:02;;;;;;;6.13;1.17;;;15.70;84.70;;;;;;5104054;28;20141;-77
2023/08/04 03:18:29;;;;;;;4.47;0.80;;;15.70;84.80;;;;;;5096405;27;20040;-77
2023/08/04 03:20:58;;;;;;;4.63;1.10;;;15.60;84.80;;;;;;5121732;27;20043;-77
2023/08/04 03:23:26;;;;;;;4.28;1.20;;;15.60;84.70;;;;;;5113668;27;20325;-77
2023/08/04 03:25:53;;;;;;;3.45;0.77;;;15.60;84.70;;;;;;5101960;27;20597;-77
2023/08/04 03:28:20;;;;;;;3.97;0.77;;;15.60;84.70;;;;;;5110645;28;20037;-77
2023/08/04 03:30:47;;;;;;;5.45;1.23;;;15.60;84.60;;;;;;5111972;28;20047;-77
2023/08/04 03:33:14;;;;;;;4.83;1.03;;;15.60;84.60;;;;;;5112654;27;20052;-77
2023/08/04 03:35:41;;;;;;;5.65;1.02;;;15.60;84.50;;;;;;5110771;27;20561;-77
2023/08/04 03:38:08;;;;;;;4.45;1.20;;;15.60;84.50;;;;;;5110176;27;20126;-77
2023/08/04 03:40:36;;;;;;;4.63;1.10;;;15.60;84.40;;;;;;5121648;27;20044;-77
2023/08/04 03:43:04;;;;;;;5.15;1.10;;;15.60;84.40;;;;;;5112907;27;20604;-77
2023/08/04 03:45:31;;;;;;;4.37;0.93;;;15.50;84.40;;;;;;5105509;27;20496;-77
2023/08/04 03:47:58;;;;;;;2.90;0.80;;;15.50;84.50;;;;;;5100681;27;20278;-77
2023/08/04 03:50:25;;;;;;;3.88;0.80;;;15.50;84.40;;;;;;5097558;28;20052;-77
2023/08/04 03:52:52;;;;;;;4.57;1.30;;;15.50;84.40;;;;;;5109932;28;20114;-77
2023/08/04 03:55:19;;;;;;;3.28;0.77;;;15.40;84.50;;;;;;5100269;28;20127;-77
2023/08/04 03:57:47;;;;;;;3.70;0.90;;;15.50;84.60;;;;;;5112530;27;20135;-77
2023/08/04 04:00:14;;;;;;;4.07;0.88;;;15.50;84.60;;;;;;5115906;27;20272;-77
2023/08/04 04:02:42;;;;;;;3.72;0.80;;;15.50;84.70;;;;;;5114104;27;20469;-77
2023/08/04 04:05:09;;;;;;;3.78;0.80;;;15.50;84.60;;;;;;5108411;27;20526;-77
2023/08/04 04:07:36;;;;;;;4.20;1.10;;;15.50;84.70;;;;;;5110651;27;20048;-77
2023/08/04 04:10:03;;;;;;;3.17;0.80;;;15.50;84.60;;;;;;5111038;27;21001;-76
2023/08/04 04:12:30;;;;;;;3.65;1.00;;;15.50;84.70;;;;;;5110122;28;20247;-77
2023/08/04 04:14:58;;;;;;;3.13;0.73;;;15.50;84.70;;;;;;5109741;28;20050;-77
2023/08/04 04:17:25;;;;;;;4.18;0.90;;;15.50;84.60;;;;;;5111302;27;20178;-77
2023/08/04 04:19:52;;;;;;;4.50;0.80;;;15.50;84.60;;;;;;5098522;27;20050;-77
2023/08/04 04:22:19;;;;;;;3.77;0.83;;;15.50;84.70;;;;;;5122514;27;20179;-77
2023/08/04 04:24:45;;;;;;;3.80;1.00;;;15.50;84.70;;;;;;5111930;27;20274;-77
2023/08/04 04:27:13;;;;;;;3.45;0.63;;;15.50;84.70;;;;;;5109022;27;20064;-77
2023/08/04 04:29:40;;;;;;;3.72;0.80;;;15.50;84.80;;;;;;5099407;27;20101;-77
2023/08/04 04:32:08;;;;;;;3.45;0.82;;;15.50;84.70;;;;;;5100284;27;20135;-76
2023/08/04 04:34:35;;;;;;;4.33;0.90;;;15.60;84.70;;;;;;5092808;28;20480;-77
2023/08/04 04:37:02;;;;;;;4.43;0.95;;;15.60;84.70;;;;;;5111293;27;20350;-77
2023/08/04 04:39:29;;;;;;;3.72;1.35;;;15.60;84.80;;;;;;5111705;27;20044;-77
2023/08/04 04:41:56;;;;;;;4.70;0.98;;;15.60;84.80;;;;;;5110746;27;20054;-77
2023/08/04 04:44:23;;;;;;;4.30;0.95;;;15.60;84.80;;;;;;5112666;27;20052;-76
2023/08/04 04:46:50;;;;;;;3.83;1.03;;;15.60;84.80;;;;;;5107050;27;20950;-77
2023/08/04 04:49:19;;;;;;;3.38;0.88;;;15.60;84.90;;;;;;5119820;27;21107;-77
2023/08/04 04:51:46;;;;;;;4.30;1.20;;;15.60;84.90;;;;;;5114246;27;20536;-77
2023/08/04 04:54:13;;;;;;;3.60;0.93;;;15.60;84.90;;;;;;5088942;28;20107;-77
2023/08/04 04:56:40;;;;;;;3.67;1.05;;;15.60;85.00;;;;;;5109836;28;20056;-77
2023/08/04 04:59:07;;;;;;;3.43;0.83;;;15.70;85.00;;;;;;5109398;28;20045;-76
2023/08/04 05:01:34;;;;;;;3.85;1.15;;;15.70;85.00;;;;;;5110607;27;20243;-76
2023/08/04 05:04:01;;;;;;;4.07;0.95;;;15.70;85.00;;;;;;5122943;27;20056;-77
2023/08/04 05:06:29;;;;;;;6.57;1.35;;;15.80;85.00;;;;;;5117793;27;20048;-77
2023/08/04 05:08:56;;;;;;;5.05;1.00;;;15.80;85.00;;;;;;5095203;28;20494;-77
2023/08/04 05:11:24;;;;;;;6.13;1.20;;;15.80;85.00;;;;;;5108538;28;20055;-77
2023/08/04 05:13:51;;;;;;;5.80;0.90;;;15.80;85.00;;;;;;5112636;27;20320;-76
2023/08/04 05:16:18;;;;;;;4.57;1.20;;;15.80;85.00;;;;;;5104782;27;20044;-77
2023/08/04 05:18:45;;;;;;;3.30;0.82;;;15.80;85.00;;;;;;5111656;27;20075;-77
2023/08/04 05:21:12;;;;;;;4.45;1.23;;;15.80;85.10;;;;;;5093181;28;20070;-77
2023/08/04 05:23:40;;;;;;;3.73;1.20;;;15.80;85.20;;;;;;5109694;28;20055;-77
2023/08/04 05:26:07;;;;;;;5.03;1.50;;;15.80;85.10;;;;;;5111460;27;20258;-77
2023/08/04 05:28:34;;;;;;;3.63;1.00;;;15.80;85.20;;;;;;5111200;27;20142;-77
2023/08/04 05:31:02;;;;;;;4.47;1.33;;;15.80;85.30;;;;;;5118370;27;20422;-77
2023/08/04 05:33:30;;;;;;;7.53;1.48;;;15.80;85.40;;;;;;5110336;27;20058;-77
2023/08/04 05:35:57;;;;;;;4.80;1.20;;;15.80;85.40;;;;;;5108671;28;20506;-77
2023/08/04 05:38:25;;;;;;;6.03;1.65;;;15.90;85.50;;;;;;5108706;28;20302;-77
2023/08/04 05:40:53;;;;;;;5.82;1.15;;;15.90;85.70;;;;;;5108513;27;20127;-77
2023/08/04 05:43:20;;;;;;;5.28;1.60;;;15.90;85.70;;;;;;5109381;28;20062;-76
2023/08/04 05:45:48;;;;;;;4.75;1.30;;;15.90;85.80;;;;;;5111042;27;20506;-77
2023/08/04 05:48:15;;;;;;;4.90;1.50;;;15.90;86.00;;;;;;5097299;27;20139;-77
2023/08/04 05:50:42;;;;;;;6.43;1.30;;;15.90;85.90;;;;;;5110752;27;20254;-77
2023/08/04 05:53:11;;;;;;;3.97;1.30;;;15.90;85.80;;;;;;5117277;27;20183;-76
2023/08/04 05:55:38;;;;;;;4.00;1.10;;;15.90;86.00;;;;;;5115889;27;20601;-77
2023/08/04 05:58:07;;;;;;;5.43;1.50;;;15.90;86.10;;;;;;5098976;28;20051;-77
2023/08/04 06:00:35;;;;;;;4.10;1.10;;;16.00;86.10;;;;;;5094318;28;20052;-77
2023/08/04 06:03:02;;;;;;;4.28;1.17;;;16.00;86.10;;;;;;5107123;28;20459;-77
2023/08/04 06:05:29;;;;;;;5.72;1.40;;;16.00;86.00;;;;;;5111490;27;20056;-77
2023/08/04 06:07:56;;;;;;;5.25;1.10;;;16.00;86.00;;;;;;5109759;27;20124;-77
2023/08/04 06:10:23;;;;;;;3.78;1.17;;;16.00;86.20;;;;;;5109679;27;20040;-76
2023/08/04 06:12:50;;;;;;;4.23;0.97;;;16.00;86.10;;;;;;5109131;27;20087;-77
2023/08/04 06:15:19;;;;;;;7.32;1.48;;;16.00;86.20;;;;;;5115967;27;20396;-77
2023/08/04 06:17:47;;;;;;;5.22;1.30;;;16.00;86.20;;;;;;5122821;27;20054;-77
2023/08/04 06:20:14;;;;;;;3.92;0.80;;;16.00;86.10;;;;;;5123070;27;20624;-77
2023/08/04 06:22:41;;;;;;;3.80;1.20;;;16.10;86.10;;;;;;5114196;27;20135;-77
2023/08/04 06:25:08;;;;;;;3.87;1.00;;;16.10;86.00;;;;;;5119149;27;20063;-77
2023/08/04 06:27:35;;;;;;;3.83;1.05;;;16.10;86.00;;;;;;5118726;27;20448;-77
2023/08/04 06:30:02;;;;;;;3.42;1.05;;;16.10;85.90;;;;;;5110674;27;20044;-77
2023/08/04 06:32:30;;;;;;;5.88;1.13;;;16.10;85.90;;;;;;5105902;28;20127;-77
2023/08/04 06:34:57;;;;;;;3.67;1.20;;;16.20;86.00;;;;;;5130288;27;20052;-77
2023/08/04 06:37:24;;;;;;;5.93;1.43;;;16.20;85.90;;;;;;5107363;28;20555;-76
2023/08/04 06:39:52;;;;;;;3.53;0.93;;;16.20;85.90;;;;;;5106033;28;21258;-77
2023/08/04 06:42:19;;;;;;;4.20;1.10;;;16.30;85.70;;;;;;5090456;28;20378;-77
2023/08/04 06:44:47;;;;;;;5.53;1.25;;;16.30;85.60;;;;;;5111911;27;20163;-77
2023/08/04 06:47:14;;;;;;;5.95;1.02;;;16.30;85.70;;;;;;5109136;27;20082;-77
2023/08/04 06:49:43;;;;;;;3.80;1.10;;;16.40;85.70;;;;;;5107123;27;20059;-77
2023/08/04 06:52:11;;;;;;;3.20;1.00;;;16.40;85.70;;;;;;5137824;27;20332;-77
2023/08/04 06:54:38;;;;;;;3.88;0.90;;;16.40;85.40;;;;;;5110941;27;20091;-77
2023/08/04 06:57:06;;;;;;;4.03;0.95;;;16.40;85.30;;;;;;5105679;28;20055;-77
2023/08/04 06:59:33;;;;;;;5.05;1.10;;;16.40;85.10;;;;;;5108970;27;20068;-77
2023/08/04 07:02:00;;;;;;;4.23;0.80;;;16.40;85.00;;;;;;5106795;28;20055;-77
2023/08/04 07:04:27;;;;;;;4.15;0.90;;;16.40;84.70;;;;;;5108940;28;20251;-77
2023/08/04 07:06:57;;;;;;;3.83;0.60;;;16.50;84.50;;;;;;5090762;28;20067;-77
2023/08/04 07:09:25;;;;;;;6.00;1.10;;;16.50;84.30;;;;;;5107841;27;20537;-77
2023/08/04 07:11:53;;;;;;;3.83;0.90;;;16.50;84.20;;;;;;5107334;27;20059;-77
2023/08/04 07:14:20;;;;;;;3.20;0.80;;;16.50;83.90;;;;;;5097059;28;20575;-77
2023/08/04 07:16:47;;;;;;;3.05;0.75;;;16.50;83.90;;;;;;5110419;27;20286;-76
2023/08/04 07:19:15;;;;;;;3.60;1.00;;;16.60;84.00;;;;;;5112423;27;20143;-77
2023/08/04 07:21:42;;;;;;;2.75;0.73;;;16.60;83.80;;;;;;5108518;27;20497;-77
2023/08/04 07:24:11;;;;;;;3.47;0.93;;;16.60;83.90;;;;;;5106844;28;20674;-77
2023/08/04 07:26:38;;;;;;;3.47;0.90;;;16.70;83.90;;;;;;5111596;27;20044;-77
2023/08/04 07:29:05;;;;;;;3.60;0.90;;;16.70;84.00;;;;;;5116907;27;20738;-77
2023/08/04 07:31:32;;;;;;;3.83;0.90;;;16.70;83.80;;;;;;5118448;27;20063;-76
2023/08/04 07:34:01;;;;;;;5.15;1.20;;;16.70;83.40;;;;;;5112156;27;20074;-77
2023/08/04 07:36:28;;;;;;;4.47;0.90;;;16.70;83.10;;;;;;5112173;27;20504;-77
2023/08/04 07:38:55;;;;;;;2.57;0.60;;;16.80;83.00;;;;;;5107031;28;20121;-77
2023/08/04 07:41:25;;;;;;;2.65;0.68;;;16.80;82.90;;;;;;5106234;28;20251;-76
2023/08/04 07:43:52;;;;;;;3.35;0.80;;;16.80;82.90;;;;;;5107375;27;20048;-77
2023/08/04 07:46:24;;;;;;;2.60;0.80;;;16.80;82.60;;;;;;5106326;27;20048;-77
2023/08/04 07:48:51;;;;;;;5.13;1.02;;;16.80;82.60;;;;;;5123509;27;20051;-77
2023/08/04 07:51:18;;;;;;;5.07;1.00;;;16.80;82.60;;;;;;5111211;27;20203;-78
2023/08/04 07:53:45;;;;;;;4.22;0.80;;;16.80;82.70;;;;;;5092717;28;20377;-77
2023/08/04 07:56:12;;;;;;;2.70;0.82;;;16.90;82.80;;;;;;5104625;27;20048;-77
2023/08/04 07:58:41;;;;;;;4.35;0.80;;;16.90;83.10;;;;;;5112414;27;20052;-78
2023/08/04 08:01:08;;;;;;;3.53;1.10;;;16.90;83.00;;;;;;5092612;28;20143;-77
2023/08/04 08:03:36;;;;;;;5.20;0.87;;;17.00;82.70;;;;;;5109303;27;20563;-79
2023/08/04 08:06:04;;;;;;;4.47;0.77;;;17.00;82.10;;;;;;5109716;27;20274;-77
2023/08/04 08:08:31;;;;;;;3.90;1.00;;;17.00;82.20;;;;;;5107089;27;20048;-78
2023/08/04 08:10:59;;;;;;;4.10;1.08;;;17.00;82.30;;;;;;5110712;27;20044;-78
2023/08/04 08:13:28;;;;;;;6.07;1.30;;;17.00;82.40;;;;;;5111904;27;20916;-79
2023/08/04 08:15:57;;;;;;;4.00;1.17;;;17.00;82.50;;;;;;5090063;27;20052;-77
2023/08/04 08:18:24;;;;;;;2.90;0.80;;;17.00;82.60;;;;;;5109628;27;20406;-78
2023/08/04 08:20:51;;;;;;;4.95;1.25;;;17.00;82.80;;;;;;5110847;28;20161;-78
2023/08/04 08:23:18;;;;;;;4.70;1.08;;;17.10;82.90;;;;;;5109976;27;20522;-76
2023/08/04 08:25:44;;;;;;;3.35;0.52;;;17.20;83.20;;;;;;5108135;27;20516;-77
2023/08/04 08:28:11;;;;;;;3.97;0.90;;;17.20;83.50;;;;;;5142019;27;20048;-77
2023/08/04 08:30:39;;;;;;;4.18;1.10;;;17.20;83.40;;;;;;5115214;27;20670;-77
2023/08/04 08:33:07;;;;;;;3.95;1.35;;;17.20;83.40;;;;;;5114393;27;20048;-77
2023/08/04 08:35:34;;;;;;;4.10;1.33;;;17.20;83.70;;;;;;5114161;27;20048;-76
2023/08/04 08:38:01;;;;;;;4.88;1.38;;;17.30;83.90;;;;;;5114374;27;20052;-77
2023/08/04 08:40:28;;;;;;;5.43;1.43;;;17.40;83.80;;;;;;5109104;28;20040;-77
2023/08/04 08:42:56;;;;;;;5.20;1.23;;;17.40;83.90;;;;;;5112387;27;20949;-77
2023/08/04 08:45:27;;;;;;;5.20;1.40;;;17.50;84.00;;;;;;5107754;27;21017;-77
2023/08/04 08:47:55;;;;;;;4.95;1.52;;;17.50;83.50;;;;;;5116941;27;20606;-77
2023/08/04 08:50:25;;;;;;;3.70;1.33;;;17.50;83.20;;;;;;5116444;27;20073;-77
2023/08/04 08:53:00;;;;;;;4.07;1.10;;;17.60;82.50;;;;;;5108662;27;20049;-76
2023/08/04 08:55:28;;;;;;;6.45;1.10;;;17.50;81.80;;;;;;5092807;28;20357;-76
2023/08/04 08:57:56;;;;;;;3.65;0.80;;;17.60;82.30;;;;;;5114840;27;20588;-78
2023/08/04 09:00:23;;;;;;;3.97;1.10;;;17.60;82.00;;;;;;5112969;27;20047;-78
2023/08/04 09:02:51;;;;;;;3.40;0.98;;;17.50;81.20;;;;;;5109212;27;20163;-78
2023/08/04 09:05:18;;;;;;;3.67;0.97;;;17.50;81.20;;;;;;5091932;27;20056;-77
2023/08/04 09:07:48;;;;;;;3.38;0.93;;;17.30;81.00;;;;;;5129568;27;20264;-77
2023/08/04 09:10:15;;;;;;;3.75;1.20;;;17.20;81.20;;;;;;5144704;27;20051;-77
2023/08/04 09:12:44;;;;;;;4.13;1.10;;;17.10;81.50;;;;;;5088337;28;20543;-77
2023/08/04 09:15:12;;;;;;;5.68;1.67;;;17.00;81.90;;;;;;5137164;27;20059;-78
2023/08/04 09:17:41;;;;;;;4.73;1.13;;;17.00;82.30;;;;;;5091745;28;20059;-78
2023/08/04 09:20:10;;;;;;;3.88;1.08;;;17.00;82.80;;;;;;5098151;27;20321;-77
2023/08/04 09:22:41;;;;;;;3.30;1.00;;;17.00;83.10;;;;;;5112096;27;20540;-77
2023/08/04 09:25:10;;;;;;;3.42;1.15;;;17.00;83.40;;;;;;5114477;27;20080;-75
2023/08/04 09:27:39;;;;;;;3.72;1.17;;;17.00;83.60;;;;;;5127193;27;20116;-76
2023/08/04 09:30:08;;;;;;;3.90;1.10;;;17.00;83.70;;;;;;5121215;27;20044;-76
2023/08/04 09:32:42;;;;;;;4.60;1.25;;;17.00;83.60;;;;;;5111309;27;20367;-76
2023/08/04 09:35:12;;;;;;;3.55;1.30;;;17.00;83.40;;;;;;5112721;28;20159;-76
2023/08/04 09:37:43;;;;;;;3.90;1.30;;;17.00;83.20;;;;;;5119908;27;20055;-76
2023/08/04 09:40:17;;;;;;;5.03;1.30;;;17.00;83.70;;;;;;5114920;27;20278;-76
2023/08/04 09:42:44;;;;;;;4.17;1.37;;;17.00;84.10;;;;;;5118112;27;20091;-76
2023/08/04 09:45:16;;;;;;;3.75;1.40;;;17.00;84.10;;;;;;5125223;27;20336;-76
2023/08/04 09:47:48;;;;;;;3.58;1.30;;;17.00;84.50;;;;;;5137701;27;20054;-77
2023/08/04 09:50:15;;;;;;;3.90;1.30;;;17.00;84.70;;;;;;5119353;27;20050;-77
2023/08/04 09:52:42;;;;;;;4.13;1.40;;;17.00;84.30;;;;;;5124069;27;20036;-77
2023/08/04 09:55:10;;;;;;;5.43;1.53;;;17.10;84.50;;;;;;5116559;27;20055;-76
2023/08/04 09:57:39;;;;;;;4.43;1.40;;;17.10;84.70;;;;;;5099858;27;20679;-75
2023/08/04 10:00:08;;;;;;;4.00;1.17;;;17.20;85.10;;;;;;5119588;27;20051;-77
2023/08/04 10:02:37;;;;;;;3.83;1.27;;;17.20;85.60;;;;;;5112256;27;20044;-76
2023/08/04 10:05:22;;;;;;;4.07;1.30;;;17.40;85.70;;;;;;5123400;27;20055;-76
2023/08/04 10:07:49;;;;;;;4.27;1.40;;;17.50;85.90;;;;;;5116054;27;20371;-77
2023/08/04 10:10:16;;;;;;;3.83;1.50;;;17.50;86.00;;;;;;5109214;27;20723;-76
2023/08/04 10:12:44;;;;;;;3.88;1.40;;;17.60;85.40;;;;;;5112417;27;20344;-76
2023/08/04 10:15:11;;;;;;;6.35;1.67;;;17.60;85.50;;;;;;5110407;27;20101;-76
2023/08/04 10:17:42;;;;;;;6.60;1.65;;;17.80;85.20;;;;;;5112091;27;20510;-76
2023/08/04 10:20:10;;;;;;;3.30;0.77;;;17.80;84.40;;;;;;5111277;27;20139;-77
2023/08/04 10:22:43;;;;;;;4.53;1.20;;;17.80;84.10;;;;;;5114222;27;20259;-77
2023/08/04 10:25:15;;;;;;;3.47;0.93;;;17.80;82.50;;;;;;5108457;27;20040;-77
2023/08/04 10:27:49;;;;;;;4.40;1.00;;;17.80;81.50;;;;;;5113910;27;20506;-77
2023/08/04 10:30:16;;;;;;;3.15;0.98;;;17.80;82.00;;;;;;5113018;27;20051;-76
2023/08/04 10:32:44;;;;;;;3.90;1.33;;;17.70;82.30;;;;;;5115104;27;20060;-76
2023/08/04 10:35:18;;;;;;;4.40;1.30;;;17.60;82.00;;;;;;5135835;27;20273;-77
2023/08/04 10:37:48;;;;;;;4.32;1.05;;;17.60;82.20;;;;;;5130214;27;20044;-77
2023/08/04 10:40:28;;;;;;;4.97;1.40;;;17.60;82.90;;;;;;5106655;27;20141;-77
2023/08/04 10:43:02;;;;;;;4.65;1.42;;;17.60;83.20;;;;;;5110184;27;20048;-76
2023/08/04 10:45:52;;;;;;;6.37;1.77;;;17.60;84.10;;;;;;5092841;28;20052;-76
2023/08/04 10:48:21;;;;;;;5.75;1.65;;;17.60;84.30;;;;;;5109163;27;20271;-77
2023/08/04 10:50:49;;;;;;;5.55;2.03;;;17.80;84.70;;;;;;5115928;27;20055;-75
2023/08/04 10:53:16;;;;;;;6.13;1.85;;;17.80;84.80;;;;;;5112867;27;20060;-78
2023/08/04 10:55:55;;;;;;;4.13;1.40;;;17.90;84.90;;;;;;5112043;27;20122;-77
2023/08/04 10:58:24;;;;;;;5.43;1.30;;;18.00;85.50;;;;;;5109957;28;20058;-78
2023/08/04 11:00:52;;;;;;;4.45;1.17;;;18.00;85.00;;;;;;5108584;27;20690;-78
2023/08/04 11:03:21;;;;;;;5.10;1.30;;;18.10;83.80;;;;;;5109178;27;20105;-77
2023/08/04 11:05:49;;;;;;;4.32;1.45;;;18.10;82.60;;;;;;5110108;27;20059;-77
2023/08/04 11:08:16;;;;;;;5.15;1.10;;;18.10;82.80;;;;;;5116897;27;20135;-78
2023/08/04 11:10:50;;;;;;;4.37;0.90;;;18.20;83.10;;;;;;5114318;27;20540;-78
2023/08/04 11:13:18;;;;;;;5.53;1.52;;;18.20;82.90;;;;;;5114706;27;20274;-78
2023/08/04 11:15:47;;;;;;;5.20;1.10;;;18.20;82.30;;;;;;5106649;27;20674;-78
2023/08/04 11:18:15;;;;;;;3.80;1.00;;;18.30;82.30;;;;;;5105361;27;20075;-78
2023/08/04 11:20:43;;;;;;;6.10;1.20;;;18.30;80.90;;;;;;5108103;27;20058;-78
2023/08/04 11:23:11;;;;;;;5.20;1.30;;;18.30;78.40;;;;;;5104700;27;20052;-78
2023/08/04 11:25:38;;;;;;;5.75;1.48;;;18.30;77.30;;;;;;5090406;28;20266;-78
2023/08/04 11:28:06;;;;;;;4.28;1.00;;;18.20;78.00;;;;;;5107813;27;20063;-78
2023/08/04 11:30:34;;;;;;;3.78;1.17;;;18.20;77.50;;;;;;5117528;27;20059;-78
2023/08/04 11:33:03;;;;;;;4.82;1.30;;;18.10;77.50;;;;;;5113051;27;20495;-79
2023/08/04 11:35:32;;;;;;;4.63;1.60;;;18.10;77.30;;;;;;5111779;27;20044;-79
2023/08/04 11:38:00;;;;;;;4.80;1.65;;;18.10;78.10;;;;;;5094157;27;20253;-78
2023/08/04 11:40:27;;;;;;;4.32;1.50;;;18.10;78.60;;;;;;5109176;27;20052;-78
2023/08/04 11:42:58;;;;;;;6.05;1.58;;;18.10;78.30;;;;;;5109958;27;20048;-78
2023/08/04 11:45:25;;;;;;;3.40;0.90;;;18.10;79.10;;;;;;5110864;27;20133;-78
2023/08/04 11:47:55;;;;;;;3.30;0.80;;;18.10;78.90;;;;;;5112852;27;20124;-79
2023/08/04 11:50:24;;;;;;;4.43;1.08;;;18.20;77.90;;;;;;5140090;27;20251;-78
2023/08/04 11:52:52;;;;;;;4.38;1.08;;;18.20;76.90;;;;;;5117054;27;20056;-78
2023/08/04 11:55:19;;;;;;;4.68;1.30;;;18.30;77.40;;;;;;5092530;27;20111;-77
2023/08/04 11:57:50;;;;;;;5.40;1.35;;;18.40;77.30;;;;;;5110507;27;20074;-79
2023/08/04 12:00:17;;;;;;;5.33;1.10;;;18.40;76.70;;;;;;5106881;27;20063;-78
2023/08/04 12:02:58;;;;;;;4.78;1.60;;;18.50;76.90;;;;;;5107400;28;20249;-79
2023/08/04 12:05:31;;;;;;;7.60;1.50;;;18.50;76.80;;;;;;5090467;28;20052;-79
2023/08/04 12:07:58;;;;;;;5.53;1.55;;;18.50;76.50;;;;;;5113345;27;20063;-78
2023/08/04 12:10:26;;;;;;;8.60;1.67;;;18.50;77.10;;;;;;5115992;27;20474;-79
2023/08/04 12:12:53;;;;;;;6.77;1.60;;;18.50;78.20;;;;;;5119552;27;20062;-77
2023/08/04 12:15:20;;;;;;;6.03;1.15;;;18.60;79.40;;;;;;5100997;27;20267;-77
2023/08/04 12:17:47;;;;;;;5.03;1.40;;;18.70;79.40;;;;;;5110425;27;20130;-78
2023/08/04 12:20:15;;;;;;;5.97;1.38;;;18.70;78.30;;;;;;5110170;27;20445;-76
2023/08/04 12:22:44;;;;;;;5.65;1.40;;;18.70;78.30;;;;;;5110144;28;20484;-77
2023/08/04 12:25:12;;;;;;;4.70;1.10;;;18.70;78.70;;;;;;5109411;28;20060;-78
2023/08/04 12:27:40;;;;;;;6.38;1.52;;;18.70;78.20;;;;;;5109759;27;20254;-77
2023/08/04 12:30:08;;;;;;;4.95;1.05;;;18.70;78.80;;;;;;5109686;27;20056;-77
2023/08/04 12:32:35;;;;;;;5.03;1.33;;;18.80;79.90;;;;;;5133536;27;20161;-78
2023/08/04 12:35:02;;;;;;;3.92;1.30;;;18.80;79.40;;;;;;5137042;27;20571;-78
2023/08/04 12:37:29;;;;;;;6.23;1.47;;;18.90;77.90;;;;;;5115387;27;20056;-77
2023/08/04 12:39:57;;;;;;;3.63;0.95;;;18.90;75.80;;;;;;5092962;27;20863;-78
2023/08/04 12:42:24;;;;;;;5.47;1.10;;;18.90;76.10;;;;;;5105695;27;20043;-78
2023/08/04 12:44:51;;;;;;;5.28;1.30;;;18.90;75.40;;;;;;5113649;27;20044;-77
2023/08/04 12:47:18;;;;;;;5.93;1.10;;;18.90;74.40;;;;;;5108415;27;20049;-77
2023/08/04 12:49:45;;;;;;;5.37;0.83;;;18.90;75.00;;;;;;5116835;27;20066;-77
2023/08/04 12:52:12;;;;;;;9.20;1.35;;;18.80;75.70;;;;;;5109622;27;20330;-77